sensor_id;sensor_type;location;lat;lon;timestamp;temperature;humidity
67897;DHT22;54698;48.428;9.964;2022-10-03T00:00:11;8.80;99.90
67897;DHT22;54698;48.428;9.964;2022-10-03T00:03:06;8.80;99.90
67897;DHT22;54698;48.428;9.964;2022-10-03T00:05:55;8.70;99.90
67897;DHT22;54698;48.428;9.964;2022-10-03T00:08:42;8.70;99.90
67897;DHT22;54698;48.428;9.964;2022-10-03T00:11:26;8.70;99.90
67897;DHT22;54698;48.428;9.964;2022-10-03T00:14:01;8.50;99.90
67897;DHT22;54698;48.428;9.964;2022-10-03T00:16:37;8.50;99.90
67897;DHT22;54698;48.428;9.964;2022-10-03T00:19:18;8.40;99.90
67897;DHT22;54698;48.428;9.964;2022-10-03T00:22:00;8.20;99.90
67897;DHT22;54698;48.428;9.964;2022-10-03T00:24:43;8.00;99.90
67897;DHT22;54698;48.428;9.964;2022-10-03T00:27:25;8.00;99.90
67897;DHT22;54698;48.428;9.964;2022-10-03T00:30:00;8.00;99.90
67897;DHT22;54698;48.428;9.964;2022-10-03T00:32:39;8.00;99.90
67897;DHT22;54698;48.428;9.964;2022-10-03T00:35:20;8.00;99.90
67897;DHT22;54698;48.428;9.964;2022-10-03T00:38:05;8.00;99.90
67897;DHT22;54698;48.428;9.964;2022-10-03T00:41:16;8.00;99.90
67897;DHT22;54698;48.428;9.964;2022-10-03T00:44:20;8.00;99.90
67897;DHT22;54698;48.428;9.964;2022-10-03T00:50:25;8.10;99.90
67897;DHT22;54698;48.428;9.964;2022-10-03T00:53:30;8.20;99.90
67897;DHT22;54698;48.428;9.964;2022-10-03T00:56:18;8.20;99.90
67897;DHT22;54698;48.428;9.964;2022-10-03T00:59:04;8.20;99.90
67897;DHT22;54698;48.428;9.964;2022-10-03T01:01:43;8.20;99.90
67897;DHT22;54698;48.428;9.964;2022-10-03T01:04:27;8.20;99.90
67897;DHT22;54698;48.428;9.964;2022-10-03T01:07:09;8.10;99.90
67897;DHT22;54698;48.428;9.964;2022-10-03T01:09:59;8.00;99.90
67897;DHT22;54698;48.428;9.964;2022-10-03T01:15:40;8.00;99.90
67897;DHT22;54698;48.428;9.964;2022-10-03T01:18:23;7.90;99.90
67897;DHT22;54698;48.428;9.964;2022-10-03T01:21:02;7.90;99.90
67897;DHT22;54698;48.428;9.964;2022-10-03T01:26:57;7.80;99.90
67897;DHT22;54698;48.428;9.964;2022-10-03T01:29:42;7.90;99.90
67897;DHT22;54698;48.428;9.964;2022-10-03T01:32:13;7.80;99.90
67897;DHT22;54698;48.428;9.964;2022-10-03T01:34:46;7.80;99.90
67897;DHT22;54698;48.428;9.964;2022-10-03T01:37:25;7.80;99.90
67897;DHT22;54698;48.428;9.964;2022-10-03T01:39:58;7.70;99.90
67897;DHT22;54698;48.428;9.964;2022-10-03T01:42:37;7.60;99.90
67897;DHT22;54698;48.428;9.964;2022-10-03T01:45:14;7.50;99.90
67897;DHT22;54698;48.428;9.964;2022-10-03T01:47:49;7.40;99.90
67897;DHT22;54698;48.428;9.964;2022-10-03T01:50:24;7.40;99.90
67897;DHT22;54698;48.428;9.964;2022-10-03T01:53:00;7.40;99.90
67897;DHT22;54698;48.428;9.964;2022-10-03T01:55:38;7.50;99.90
67897;DHT22;54698;48.428;9.964;2022-10-03T01:58:10;7.50;99.90
67897;DHT22;54698;48.428;9.964;2022-10-03T02:00:44;7.60;99.90
67897;DHT22;54698;48.428;9.964;2022-10-03T02:03:20;7.70;99.90
67897;DHT22;54698;48.428;9.964;2022-10-03T02:05:53;7.70;99.90
67897;DHT22;54698;48.428;9.964;2022-10-03T02:08:33;7.70;99.90
67897;DHT22;54698;48.428;9.964;2022-10-03T02:11:08;7.70;99.90
67897;DHT22;54698;48.428;9.964;2022-10-03T02:13:44;7.70;99.90
67897;DHT22;54698;48.428;9.964;2022-10-03T02:16:21;7.70;99.90
67897;DHT22;54698;48.428;9.964;2022-10-03T02:18:57;7.70;99.90
67897;DHT22;54698;48.428;9.964;2022-10-03T02:21:26;7.70;99.90
67897;DHT22;54698;48.428;9.964;2022-10-03T02:24:14;7.70;99.90
67897;DHT22;54698;48.428;9.964;2022-10-03T02:27:10;7.70;99.90
67897;DHT22;54698;48.428;9.964;2022-10-03T02:30:16;7.70;99.90
67897;DHT22;54698;48.428;9.964;2022-10-03T02:33:23;7.60;99.90
67897;DHT22;54698;48.428;9.964;2022-10-03T02:36:25;7.70;99.90
67897;DHT22;54698;48.428;9.964;2022-10-03T02:39:24;7.70;99.90
67897;DHT22;54698;48.428;9.964;2022-10-03T02:42:26;7.70;99.90
67897;DHT22;54698;48.428;9.964;2022-10-03T02:52:05;7.80;99.90
67897;DHT22;54698;48.428;9.964;2022-10-03T02:55:08;7.80;99.90
67897;DHT22;54698;48.428;9.964;2022-10-03T02:58:14;7.70;99.90
67897;DHT22;54698;48.428;9.964;2022-10-03T03:01:18;7.70;99.90
67897;DHT22;54698;48.428;9.964;2022-10-03T03:04:33;7.70;99.90
67897;DHT22;54698;48.428;9.964;2022-10-03T03:07:38;7.60;99.90
67897;DHT22;54698;48.428;9.964;2022-10-03T03:10:36;7.60;99.90
67897;DHT22;54698;48.428;9.964;2022-10-03T03:13:51;7.50;99.90
67897;DHT22;54698;48.428;9.964;2022-10-03T03:16:50;7.50;99.90
67897;DHT22;54698;48.428;9.964;2022-10-03T03:19:36;7.50;99.90
67897;DHT22;54698;48.428;9.964;2022-10-03T03:22:19;7.50;99.90
67897;DHT22;54698;48.428;9.964;2022-10-03T03:25:18;7.40;99.90
67897;DHT22;54698;48.428;9.964;2022-10-03T03:28:02;7.40;99.90
67897;DHT22;54698;48.428;9.964;2022-10-03T03:30:40;7.40;99.90
67897;DHT22;54698;48.428;9.964;2022-10-03T03:33:15;7.30;99.90
67897;DHT22;54698;48.428;9.964;2022-10-03T03:35:56;7.30;99.90
67897;DHT22;54698;48.428;9.964;2022-10-03T03:38:34;7.30;99.90
67897;DHT22;54698;48.428;9.964;2022-10-03T03:41:23;7.20;99.90
67897;DHT22;54698;48.428;9.964;2022-10-03T03:44:26;7.20;99.90
67897;DHT22;54698;48.428;9.964;2022-10-03T03:47:25;7.10;99.90
67897;DHT22;54698;48.428;9.964;2022-10-03T03:50:11;7.10;99.90
67897;DHT22;54698;48.428;9.964;2022-10-03T03:53:01;7.10;99.90
67897;DHT22;54698;48.428;9.964;2022-10-03T03:55:49;7.20;99.90
67897;DHT22;54698;48.428;9.964;2022-10-03T03:58:35;7.30;99.90
67897;DHT22;54698;48.428;9.964;2022-10-03T04:01:19;7.20;99.90
67897;DHT22;54698;48.428;9.964;2022-10-03T04:04:03;7.10;99.90
67897;DHT22;54698;48.428;9.964;2022-10-03T04:06:42;7.10;99.90
67897;DHT22;54698;48.428;9.964;2022-10-03T04:09:54;7.10;99.90
67897;DHT22;54698;48.428;9.964;2022-10-03T04:12:44;7.10;99.90
67897;DHT22;54698;48.428;9.964;2022-10-03T04:15:54;7.10;99.90
67897;DHT22;54698;48.428;9.964;2022-10-03T04:18:47;7.20;99.90
67897;DHT22;54698;48.428;9.964;2022-10-03T04:21:36;7.20;99.90
67897;DHT22;54698;48.428;9.964;2022-10-03T04:24:22;7.30;99.90
67897;DHT22;54698;48.428;9.964;2022-10-03T04:27:14;7.20;99.90
67897;DHT22;54698;48.428;9.964;2022-10-03T04:29:58;7.30;99.90
67897;DHT22;54698;48.428;9.964;2022-10-03T04:32:45;7.20;99.90
67897;DHT22;54698;48.428;9.964;2022-10-03T04:35:35;7.20;99.90
67897;DHT22;54698;48.428;9.964;2022-10-03T04:38:28;7.10;99.90
67897;DHT22;54698;48.428;9.964;2022-10-03T04:41:11;7.20;99.90
67897;DHT22;54698;48.428;9.964;2022-10-03T04:43:51;7.10;99.90
67897;DHT22;54698;48.428;9.964;2022-10-03T04:46:26;7.20;99.90
67897;DHT22;54698;48.428;9.964;2022-10-03T04:48:58;7.30;99.90
67897;DHT22;54698;48.428;9.964;2022-10-03T04:51:39;7.40;99.90
67897;DHT22;54698;48.428;9.964;2022-10-03T04:54:15;7.50;99.90
67897;DHT22;54698;48.428;9.964;2022-10-03T04:56:52;7.50;99.90
67897;DHT22;54698;48.428;9.964;2022-10-03T04:59:37;7.50;99.90
67897;DHT22;54698;48.428;9.964;2022-10-03T05:02:15;7.60;99.90
67897;DHT22;54698;48.428;9.964;2022-10-03T05:05:17;7.50;99.90
67897;DHT22;54698;48.428;9.964;2022-10-03T05:07:54;7.50;99.90
67897;DHT22;54698;48.428;9.964;2022-10-03T05:10:54;7.60;99.90
67897;DHT22;54698;48.428;9.964;2022-10-03T05:13:34;7.50;99.90
67897;DHT22;54698;48.428;9.964;2022-10-03T05:16:17;7.50;99.90
67897;DHT22;54698;48.428;9.964;2022-10-03T05:18:51;7.40;99.90
67897;DHT22;54698;48.428;9.964;2022-10-03T05:21:30;7.30;99.90
67897;DHT22;54698;48.428;9.964;2022-10-03T05:24:02;7.30;99.90
67897;DHT22;54698;48.428;9.964;2022-10-03T05:26:42;7.20;99.90
67897;DHT22;54698;48.428;9.964;2022-10-03T05:29:19;7.20;99.90
67897;DHT22;54698;48.428;9.964;2022-10-03T05:31:57;7.20;99.90
67897;DHT22;54698;48.428;9.964;2022-10-03T05:34:37;7.20;99.90
67897;DHT22;54698;48.428;9.964;2022-10-03T05:37:33;7.20;99.90
67897;DHT22;54698;48.428;9.964;2022-10-03T05:40:13;7.10;99.90
67897;DHT22;54698;48.428;9.964;2022-10-03T05:43:00;7.20;99.90
67897;DHT22;54698;48.428;9.964;2022-10-03T05:45:35;7.20;99.90
67897;DHT22;54698;48.428;9.964;2022-10-03T05:48:13;7.40;99.90
67897;DHT22;54698;48.428;9.964;2022-10-03T05:51:12;7.40;99.90
67897;DHT22;54698;48.428;9.964;2022-10-03T05:54:06;7.60;99.90
67897;DHT22;54698;48.428;9.964;2022-10-03T05:57:11;7.70;99.90
67897;DHT22;54698;48.428;9.964;2022-10-03T06:00:00;7.90;99.90
67897;DHT22;54698;48.428;9.964;2022-10-03T06:03:08;8.00;99.90
67897;DHT22;54698;48.428;9.964;2022-10-03T06:05:57;8.00;99.90
67897;DHT22;54698;48.428;9.964;2022-10-03T06:11:56;8.10;99.90
67897;DHT22;54698;48.428;9.964;2022-10-03T06:14:39;8.40;99.90
67897;DHT22;54698;48.428;9.964;2022-10-03T06:17:43;8.60;99.90
67897;DHT22;54698;48.428;9.964;2022-10-03T06:21:07;8.90;99.90
67897;DHT22;54698;48.428;9.964;2022-10-03T06:30:43;9.50;99.90
67897;DHT22;54698;48.428;9.964;2022-10-03T06:33:51;9.70;99.90
67897;DHT22;54698;48.428;9.964;2022-10-03T06:36:35;9.90;99.90
67897;DHT22;54698;48.428;9.964;2022-10-03T06:42:40;10.20;99.90
67897;DHT22;54698;48.428;9.964;2022-10-03T06:45:59;10.40;99.90
67897;DHT22;54698;48.428;9.964;2022-10-03T06:49:06;10.50;99.90
67897;DHT22;54698;48.428;9.964;2022-10-03T06:52:01;10.70;99.90
67897;DHT22;54698;48.428;9.964;2022-10-03T06:58:10;11.00;99.90
67897;DHT22;54698;48.428;9.964;2022-10-03T07:01:53;11.10;99.90
67897;DHT22;54698;48.428;9.964;2022-10-03T07:07:59;11.30;99.90
67897;DHT22;54698;48.428;9.964;2022-10-03T07:11:01;11.20;99.90
67897;DHT22;54698;48.428;9.964;2022-10-03T07:16:58;11.20;99.90
67897;DHT22;54698;48.428;9.964;2022-10-03T07:20:02;11.10;99.90
67897;DHT22;54698;48.428;9.964;2022-10-03T07:22:58;11.00;99.90
67897;DHT22;54698;48.428;9.964;2022-10-03T07:25:55;11.00;99.90
67897;DHT22;54698;48.428;9.964;2022-10-03T07:29:06;11.10;99.90
67897;DHT22;54698;48.428;9.964;2022-10-03T07:31:54;11.00;99.90
67897;DHT22;54698;48.428;9.964;2022-10-03T07:35:02;11.00;99.90
67897;DHT22;54698;48.428;9.964;2022-10-03T07:38:16;11.20;99.90
67897;DHT22;54698;48.428;9.964;2022-10-03T07:41:15;11.60;99.90
67897;DHT22;54698;48.428;9.964;2022-10-03T07:44:10;11.80;99.90
67897;DHT22;54698;48.428;9.964;2022-10-03T07:50:22;11.70;99.90
67897;DHT22;54698;48.428;9.964;2022-10-03T07:53:12;11.60;99.90
67897;DHT22;54698;48.428;9.964;2022-10-03T07:56:00;11.50;99.90
67897;DHT22;54698;48.428;9.964;2022-10-03T07:58:56;11.40;99.90
67897;DHT22;54698;48.428;9.964;2022-10-03T08:01:37;11.30;99.90
67897;DHT22;54698;48.428;9.964;2022-10-03T08:04:32;11.10;99.90
67897;DHT22;54698;48.428;9.964;2022-10-03T08:07:23;11.10;99.90
67897;DHT22;54698;48.428;9.964;2022-10-03T08:10:12;11.20;99.90
67897;DHT22;54698;48.428;9.964;2022-10-03T08:12:59;11.30;99.90
67897;DHT22;54698;48.428;9.964;2022-10-03T08:15:47;11.30;99.90
67897;DHT22;54698;48.428;9.964;2022-10-03T08:18:35;11.50;99.90
67897;DHT22;54698;48.428;9.964;2022-10-03T08:21:20;11.60;99.90
67897;DHT22;54698;48.428;9.964;2022-10-03T08:24:16;11.60;99.90
67897;DHT22;54698;48.428;9.964;2022-10-03T08:27:02;11.90;99.90
67897;DHT22;54698;48.428;9.964;2022-10-03T08:30:02;12.10;99.90
67897;DHT22;54698;48.428;9.964;2022-10-03T08:33:01;12.20;99.90
67897;DHT22;54698;48.428;9.964;2022-10-03T08:36:28;12.40;99.90
67897;DHT22;54698;48.428;9.964;2022-10-03T08:39:13;12.60;99.90
67897;DHT22;54698;48.428;9.964;2022-10-03T08:42:04;12.80;99.90
67897;DHT22;54698;48.428;9.964;2022-10-03T08:45:01;12.90;99.90
67897;DHT22;54698;48.428;9.964;2022-10-03T08:48:00;13.00;99.90
67897;DHT22;54698;48.428;9.964;2022-10-03T08:50:55;12.80;99.90
67897;DHT22;54698;48.428;9.964;2022-10-03T08:53:47;12.80;99.90
67897;DHT22;54698;48.428;9.964;2022-10-03T08:56:26;12.90;99.90
67897;DHT22;54698;48.428;9.964;2022-10-03T09:02:52;12.80;99.90
67897;DHT22;54698;48.428;9.964;2022-10-03T09:06:01;12.80;99.90
67897;DHT22;54698;48.428;9.964;2022-10-03T09:09:03;13.00;99.90
67897;DHT22;54698;48.428;9.964;2022-10-03T09:11:49;13.00;99.90
67897;DHT22;54698;48.428;9.964;2022-10-03T09:14:59;13.20;99.90
67897;DHT22;54698;48.428;9.964;2022-10-03T09:17:59;13.40;99.90
67897;DHT22;54698;48.428;9.964;2022-10-03T09:30:16;14.00;99.90
67897;DHT22;54698;48.428;9.964;2022-10-03T09:33:18;14.10;99.90
67897;DHT22;54698;48.428;9.964;2022-10-03T09:36:22;14.50;99.90
67897;DHT22;54698;48.428;9.964;2022-10-03T09:39:34;15.00;99.90
67897;DHT22;54698;48.428;9.964;2022-10-03T09:42:40;15.20;99.90
67897;DHT22;54698;48.428;9.964;2022-10-03T09:49:25;14.50;99.90
67897;DHT22;54698;48.428;9.964;2022-10-03T09:52:11;14.30;99.90
67897;DHT22;54698;48.428;9.964;2022-10-03T09:55:17;14.20;99.90
67897;DHT22;54698;48.428;9.964;2022-10-03T09:58:39;14.50;99.90
67897;DHT22;54698;48.428;9.964;2022-10-03T10:01:24;14.80;99.90
67897;DHT22;54698;48.428;9.964;2022-10-03T10:04:18;14.80;99.90
67897;DHT22;54698;48.428;9.964;2022-10-03T10:10:51;14.70;99.90
67897;DHT22;54698;48.428;9.964;2022-10-03T10:13:56;14.40;99.90
67897;DHT22;54698;48.428;9.964;2022-10-03T10:16:53;14.30;99.90
67897;DHT22;54698;48.428;9.964;2022-10-03T10:19:52;14.80;99.90
67897;DHT22;54698;48.428;9.964;2022-10-03T10:22:45;15.70;99.90
67897;DHT22;54698;48.428;9.964;2022-10-03T10:29:13;17.10;99.90
67897;DHT22;54698;48.428;9.964;2022-10-03T10:35:37;17.40;99.90
67897;DHT22;54698;48.428;9.964;2022-10-03T10:38:37;16.80;99.90
67897;DHT22;54698;48.428;9.964;2022-10-03T10:42:04;16.20;99.90
67897;DHT22;54698;48.428;9.964;2022-10-03T10:58:23;15.60;99.90
67897;DHT22;54698;48.428;9.964;2022-10-03T11:01:46;15.30;99.90
67897;DHT22;54698;48.428;9.964;2022-10-03T11:18:29;21.30;91.30
67897;DHT22;54698;48.428;9.964;2022-10-03T11:38:17;22.10;70.80
67897;DHT22;54698;48.428;9.964;2022-10-03T11:40:58;22.70;71.90
67897;DHT22;54698;48.428;9.964;2022-10-03T11:43:53;22.50;76.20
67897;DHT22;54698;48.428;9.964;2022-10-03T11:46:39;22.00;76.40
67897;DHT22;54698;48.428;9.964;2022-10-03T11:49:30;21.90;74.40
67897;DHT22;54698;48.428;9.964;2022-10-03T11:52:20;20.50;76.00
67897;DHT22;54698;48.428;9.964;2022-10-03T11:55:01;19.80;80.40
67897;DHT22;54698;48.428;9.964;2022-10-03T11:57:33;19.10;79.10
67897;DHT22;54698;48.428;9.964;2022-10-03T12:00:03;19.20;82.30
67897;DHT22;54698;48.428;9.964;2022-10-03T12:02:52;20.00;77.60
67897;DHT22;54698;48.428;9.964;2022-10-03T12:05:31;22.10;77.10
67897;DHT22;54698;48.428;9.964;2022-10-03T12:08:18;23.10;67.00
67897;DHT22;54698;48.428;9.964;2022-10-03T12:10:55;23.60;64.00
67897;DHT22;54698;48.428;9.964;2022-10-03T12:13:32;23.20;60.90
67897;DHT22;54698;48.428;9.964;2022-10-03T12:16:05;22.60;64.20
67897;DHT22;54698;48.428;9.964;2022-10-03T12:18:51;23.00;61.00
67897;DHT22;54698;48.428;9.964;2022-10-03T12:21:25;23.10;61.80
67897;DHT22;54698;48.428;9.964;2022-10-03T12:24:02;23.60;62.10
67897;DHT22;54698;48.428;9.964;2022-10-03T12:26:42;24.60;61.10
67897;DHT22;54698;48.428;9.964;2022-10-03T12:29:14;24.70;62.80
67897;DHT22;54698;48.428;9.964;2022-10-03T12:31:47;24.00;63.90
67897;DHT22;54698;48.428;9.964;2022-10-03T12:34:35;24.10;64.30
67897;DHT22;54698;48.428;9.964;2022-10-03T12:37:27;23.60;61.70
67897;DHT22;54698;48.428;9.964;2022-10-03T12:40:03;22.00;65.10
67897;DHT22;54698;48.428;9.964;2022-10-03T12:42:43;20.60;68.90
67897;DHT22;54698;48.428;9.964;2022-10-03T12:45:22;19.60;73.60
67897;DHT22;54698;48.428;9.964;2022-10-03T12:48:25;18.60;78.00
67897;DHT22;54698;48.428;9.964;2022-10-03T12:51:02;18.20;81.10
67897;DHT22;54698;48.428;9.964;2022-10-03T12:53:39;18.00;84.70
67897;DHT22;54698;48.428;9.964;2022-10-03T12:56:16;17.90;86.50
67897;DHT22;54698;48.428;9.964;2022-10-03T12:58:54;18.10;89.50
67897;DHT22;54698;48.428;9.964;2022-10-03T13:01:40;18.20;88.20
67897;DHT22;54698;48.428;9.964;2022-10-03T13:04:24;18.00;85.40
67897;DHT22;54698;48.428;9.964;2022-10-03T13:07:06;17.90;86.00
67897;DHT22;54698;48.428;9.964;2022-10-03T13:10:02;18.60;86.00
67897;DHT22;54698;48.428;9.964;2022-10-03T13:12:38;20.20;85.10
67897;DHT22;54698;48.428;9.964;2022-10-03T13:18:14;23.70;69.70
67897;DHT22;54698;48.428;9.964;2022-10-03T13:21:00;25.50;62.80
67897;DHT22;54698;48.428;9.964;2022-10-03T13:23:40;25.40;57.60
67897;DHT22;54698;48.428;9.964;2022-10-03T13:26:13;23.80;60.10
67897;DHT22;54698;48.428;9.964;2022-10-03T13:31:57;23.70;61.00
67897;DHT22;54698;48.428;9.964;2022-10-03T13:34:35;23.80;60.70
67897;DHT22;54698;48.428;9.964;2022-10-03T13:37:14;24.70;58.90
67897;DHT22;54698;48.428;9.964;2022-10-03T13:39:48;25.30;56.50
67897;DHT22;54698;48.428;9.964;2022-10-03T13:42:19;25.10;57.20
67897;DHT22;54698;48.428;9.964;2022-10-03T13:44:51;25.20;54.40
67897;DHT22;54698;48.428;9.964;2022-10-03T13:47:42;25.30;53.20
67897;DHT22;54698;48.428;9.964;2022-10-03T13:50:17;24.40;56.20
67897;DHT22;54698;48.428;9.964;2022-10-03T13:52:49;23.70;56.70
67897;DHT22;54698;48.428;9.964;2022-10-03T13:55:21;24.30;55.80
67897;DHT22;54698;48.428;9.964;2022-10-03T13:58:16;24.20;57.60
67897;DHT22;54698;48.428;9.964;2022-10-03T14:01:13;24.10;55.20
67897;DHT22;54698;48.428;9.964;2022-10-03T14:07:01;22.30;60.20
67897;DHT22;54698;48.428;9.964;2022-10-03T14:12:45;20.80;66.10
67897;DHT22;54698;48.428;9.964;2022-10-03T14:15:25;21.30;62.70
67897;DHT22;54698;48.428;9.964;2022-10-03T14:18:03;21.70;61.80
67897;DHT22;54698;48.428;9.964;2022-10-03T14:20:40;22.50;59.30
67897;DHT22;54698;48.428;9.964;2022-10-03T14:23:50;23.50;57.80
67897;DHT22;54698;48.428;9.964;2022-10-03T14:26:22;24.80;55.50
67897;DHT22;54698;48.428;9.964;2022-10-03T14:28:54;25.80;55.90
67897;DHT22;54698;48.428;9.964;2022-10-03T14:31:23;26.40;54.20
67897;DHT22;54698;48.428;9.964;2022-10-03T14:33:58;25.10;55.30
67897;DHT22;54698;48.428;9.964;2022-10-03T14:36:35;23.70;59.40
67897;DHT22;54698;48.428;9.964;2022-10-03T14:39:20;23.60;59.30
67897;DHT22;54698;48.428;9.964;2022-10-03T14:42:13;23.20;59.40
67897;DHT22;54698;48.428;9.964;2022-10-03T14:44:54;22.80;61.50
67897;DHT22;54698;48.428;9.964;2022-10-03T14:47:21;22.90;59.70
67897;DHT22;54698;48.428;9.964;2022-10-03T14:49:48;22.90;59.90
67897;DHT22;54698;48.428;9.964;2022-10-03T14:52:25;22.40;59.30
67897;DHT22;54698;48.428;9.964;2022-10-03T14:54:59;22.30;62.50
67897;DHT22;54698;48.428;9.964;2022-10-03T14:57:34;21.40;62.90
67897;DHT22;54698;48.428;9.964;2022-10-03T15:00:03;21.10;64.70
67897;DHT22;54698;48.428;9.964;2022-10-03T15:02:33;20.30;66.50
67897;DHT22;54698;48.428;9.964;2022-10-03T15:05:06;20.60;67.10
67897;DHT22;54698;48.428;9.964;2022-10-03T15:07:37;20.00;67.20
67897;DHT22;54698;48.428;9.964;2022-10-03T15:10:10;19.50;71.00
67897;DHT22;54698;48.428;9.964;2022-10-03T15:12:41;18.80;73.10
67897;DHT22;54698;48.428;9.964;2022-10-03T15:15:12;17.90;76.50
67897;DHT22;54698;48.428;9.964;2022-10-03T15:17:44;17.10;78.90
67897;DHT22;54698;48.428;9.964;2022-10-03T15:20:12;16.90;82.70
67897;DHT22;54698;48.428;9.964;2022-10-03T15:22:46;16.80;82.30
67897;DHT22;54698;48.428;9.964;2022-10-03T15:25:18;16.80;82.80
67897;DHT22;54698;48.428;9.964;2022-10-03T15:27:49;16.40;82.40
67897;DHT22;54698;48.428;9.964;2022-10-03T15:30:21;16.20;85.90
67897;DHT22;54698;48.428;9.964;2022-10-03T15:32:49;16.30;85.60
67897;DHT22;54698;48.428;9.964;2022-10-03T15:35:19;16.20;84.40
67897;DHT22;54698;48.428;9.964;2022-10-03T15:37:49;16.00;84.80
67897;DHT22;54698;48.428;9.964;2022-10-03T15:40:23;15.80;84.60
67897;DHT22;54698;48.428;9.964;2022-10-03T15:43:02;15.50;85.10
67897;DHT22;54698;48.428;9.964;2022-10-03T15:45:31;15.20;88.00
67897;DHT22;54698;48.428;9.964;2022-10-03T15:48:01;14.90;90.40
67897;DHT22;54698;48.428;9.964;2022-10-03T15:50:31;14.80;90.80
67897;DHT22;54698;48.428;9.964;2022-10-03T15:53:02;14.70;92.10
67897;DHT22;54698;48.428;9.964;2022-10-03T15:55:35;14.70;92.20
67897;DHT22;54698;48.428;9.964;2022-10-03T15:58:07;14.70;92.60
67897;DHT22;54698;48.428;9.964;2022-10-03T16:00:38;14.60;93.50
67897;DHT22;54698;48.428;9.964;2022-10-03T16:03:12;14.70;94.50
67897;DHT22;54698;48.428;9.964;2022-10-03T16:05:45;14.70;95.70
67897;DHT22;54698;48.428;9.964;2022-10-03T16:08:20;14.80;95.50
67897;DHT22;54698;48.428;9.964;2022-10-03T16:10:58;14.80;95.50
67897;DHT22;54698;48.428;9.964;2022-10-03T16:13:35;14.80;95.50
67897;DHT22;54698;48.428;9.964;2022-10-03T16:16:09;14.70;96.80
67897;DHT22;54698;48.428;9.964;2022-10-03T16:18:48;14.60;97.10
67897;DHT22;54698;48.428;9.964;2022-10-03T16:21:31;14.60;97.50
67897;DHT22;54698;48.428;9.964;2022-10-03T16:24:04;14.60;97.70
67897;DHT22;54698;48.428;9.964;2022-10-03T16:26:35;14.40;97.50
67897;DHT22;54698;48.428;9.964;2022-10-03T16:29:12;14.30;98.30
67897;DHT22;54698;48.428;9.964;2022-10-03T16:31:47;14.30;99.60
67897;DHT22;54698;48.428;9.964;2022-10-03T16:34:18;14.20;99.90
67897;DHT22;54698;48.428;9.964;2022-10-03T16:36:46;14.00;99.90
67897;DHT22;54698;48.428;9.964;2022-10-03T16:39:18;13.80;99.90
67897;DHT22;54698;48.428;9.964;2022-10-03T16:41:48;13.70;99.90
67897;DHT22;54698;48.428;9.964;2022-10-03T16:44:19;13.50;99.90
67897;DHT22;54698;48.428;9.964;2022-10-03T16:46:50;13.40;99.90
67897;DHT22;54698;48.428;9.964;2022-10-03T16:49:33;13.30;99.90
67897;DHT22;54698;48.428;9.964;2022-10-03T16:52:03;13.20;99.90
67897;DHT22;54698;48.428;9.964;2022-10-03T16:54:32;13.00;99.90
67897;DHT22;54698;48.428;9.964;2022-10-03T16:57:02;12.90;99.90
67897;DHT22;54698;48.428;9.964;2022-10-03T16:59:30;12.70;99.90
67897;DHT22;54698;48.428;9.964;2022-10-03T17:02:00;12.60;99.90
67897;DHT22;54698;48.428;9.964;2022-10-03T17:04:32;12.50;99.90
67897;DHT22;54698;48.428;9.964;2022-10-03T17:07:02;12.40;99.90
67897;DHT22;54698;48.428;9.964;2022-10-03T17:09:37;12.30;99.90
67897;DHT22;54698;48.428;9.964;2022-10-03T17:12:13;12.10;99.90
67897;DHT22;54698;48.428;9.964;2022-10-03T17:14:41;12.10;99.90
67897;DHT22;54698;48.428;9.964;2022-10-03T17:17:20;11.90;99.90
67897;DHT22;54698;48.428;9.964;2022-10-03T17:19:56;11.80;99.90
67897;DHT22;54698;48.428;9.964;2022-10-03T17:22:29;11.70;99.90
67897;DHT22;54698;48.428;9.964;2022-10-03T17:25:03;11.60;99.90
67897;DHT22;54698;48.428;9.964;2022-10-03T17:27:36;11.60;99.90
67897;DHT22;54698;48.428;9.964;2022-10-03T17:30:10;11.50;99.90
67897;DHT22;54698;48.428;9.964;2022-10-03T17:32:54;11.40;99.90
67897;DHT22;54698;48.428;9.964;2022-10-03T17:35:26;11.30;99.90
67897;DHT22;54698;48.428;9.964;2022-10-03T17:38:22;11.30;99.90
67897;DHT22;54698;48.428;9.964;2022-10-03T17:41:08;11.30;99.90
67897;DHT22;54698;48.428;9.964;2022-10-03T17:43:42;11.20;99.90
67897;DHT22;54698;48.428;9.964;2022-10-03T17:46:15;11.30;99.90
67897;DHT22;54698;48.428;9.964;2022-10-03T17:48:52;11.20;99.90
67897;DHT22;54698;48.428;9.964;2022-10-03T17:51:28;11.10;99.90
67897;DHT22;54698;48.428;9.964;2022-10-03T17:53:58;11.10;99.90
67897;DHT22;54698;48.428;9.964;2022-10-03T17:56:26;11.20;99.90
67897;DHT22;54698;48.428;9.964;2022-10-03T17:58:58;11.10;99.90
67897;DHT22;54698;48.428;9.964;2022-10-03T18:01:32;11.10;99.90
67897;DHT22;54698;48.428;9.964;2022-10-03T18:04:02;11.10;99.90
67897;DHT22;54698;48.428;9.964;2022-10-03T18:06:48;11.20;99.90
67897;DHT22;54698;48.428;9.964;2022-10-03T18:09:34;11.20;99.90
67897;DHT22;54698;48.428;9.964;2022-10-03T18:12:15;11.00;99.90
67897;DHT22;54698;48.428;9.964;2022-10-03T18:15:17;10.90;99.90
67897;DHT22;54698;48.428;9.964;2022-10-03T18:18:01;10.90;99.90
67897;DHT22;54698;48.428;9.964;2022-10-03T18:20:41;10.70;99.90
67897;DHT22;54698;48.428;9.964;2022-10-03T18:23:18;10.70;99.90
67897;DHT22;54698;48.428;9.964;2022-10-03T18:25:51;10.90;99.90
67897;DHT22;54698;48.428;9.964;2022-10-03T18:28:19;10.90;99.90
67897;DHT22;54698;48.428;9.964;2022-10-03T18:30:50;11.10;99.90
67897;DHT22;54698;48.428;9.964;2022-10-03T18:33:21;11.10;99.90
67897;DHT22;54698;48.428;9.964;2022-10-03T18:35:48;11.20;99.90
67897;DHT22;54698;48.428;9.964;2022-10-03T18:38:18;11.20;99.90
67897;DHT22;54698;48.428;9.964;2022-10-03T18:40:49;11.20;99.90
67897;DHT22;54698;48.428;9.964;2022-10-03T18:43:31;11.00;99.90
67897;DHT22;54698;48.428;9.964;2022-10-03T18:46:07;11.00;99.90
67897;DHT22;54698;48.428;9.964;2022-10-03T18:48:56;10.90;99.90
67897;DHT22;54698;48.428;9.964;2022-10-03T18:51:31;10.90;99.90
67897;DHT22;54698;48.428;9.964;2022-10-03T18:54:03;10.80;99.90
67897;DHT22;54698;48.428;9.964;2022-10-03T18:56:35;10.60;99.90
67897;DHT22;54698;48.428;9.964;2022-10-03T18:59:07;10.50;99.90
67897;DHT22;54698;48.428;9.964;2022-10-03T19:01:51;10.50;99.90
67897;DHT22;54698;48.428;9.964;2022-10-03T19:04:30;10.50;99.90
67897;DHT22;54698;48.428;9.964;2022-10-03T19:07:00;10.40;99.90
67897;DHT22;54698;48.428;9.964;2022-10-03T19:09:38;10.60;99.90
67897;DHT22;54698;48.428;9.964;2022-10-03T19:12:10;10.60;99.90
67897;DHT22;54698;48.428;9.964;2022-10-03T19:14:50;10.60;99.90
67897;DHT22;54698;48.428;9.964;2022-10-03T19:17:32;10.50;99.90
67897;DHT22;54698;48.428;9.964;2022-10-03T19:20:13;10.30;99.90
67897;DHT22;54698;48.428;9.964;2022-10-03T19:22:57;10.10;99.90
67897;DHT22;54698;48.428;9.964;2022-10-03T19:25:25;9.80;99.90
67897;DHT22;54698;48.428;9.964;2022-10-03T19:27:56;9.50;99.90
67897;DHT22;54698;48.428;9.964;2022-10-03T19:30:25;9.20;99.90